createdAt,value
2017-04-07T00:00:29.377Z,6.21
2017-04-07T00:01:30.618Z,6.33
2017-04-07T00:02:31.882Z,6.28
2017-04-07T00:03:33.093Z,6.25
2017-04-07T00:04:34.333Z,6.28
2017-04-07T00:05:35.570Z,6.28
2017-04-07T00:06:36.803Z,6.19
2017-04-07T00:07:38.046Z,6.18
2017-04-07T00:08:39.287Z,6.18
2017-04-07T00:09:40.529Z,6.16
2017-04-07T00:10:41.786Z,6.16
2017-04-07T00:11:43.040Z,6.11
2017-04-07T00:12:44.274Z,6.11
2017-04-07T00:13:45.641Z,6.11
2017-04-07T00:14:46.886Z,6.13
2017-04-07T00:15:48.192Z,6.11
2017-04-07T00:16:49.430Z,6.18
2017-04-07T00:17:50.759Z,6.22
2017-04-07T00:18:52.121Z,6.11
2017-04-07T00:19:53.371Z,6.21
2017-04-07T00:20:54.625Z,6.13
2017-04-07T00:21:55.913Z,6.07
2017-04-07T00:22:57.140Z,6.01
2017-04-07T00:23:58.382Z,6.01
2017-04-07T00:24:59.731Z,6.09
2017-04-07T00:26:00.957Z,6.06
2017-04-07T00:27:02.238Z,6.07
2017-04-07T00:28:03.483Z,6.06
2017-04-07T00:29:04.734Z,5.96
2017-04-07T00:30:06.031Z,5.98
2017-04-07T00:31:07.258Z,6.06
2017-04-07T00:32:08.496Z,5.96
2017-04-07T00:33:09.730Z,6.01
2017-04-07T00:34:10.969Z,5.96
2017-04-07T00:35:12.208Z,5.98
2017-04-07T00:36:13.583Z,6.03
2017-04-07T00:37:14.870Z,5.95
2017-04-07T00:38:16.110Z,6.03
2017-04-07T00:39:17.411Z,5.89
2017-04-07T00:40:18.634Z,5.91
2017-04-07T00:41:19.843Z,5.95
2017-04-07T00:42:21.080Z,5.82
2017-04-07T00:43:22.318Z,5.88
2017-04-07T00:44:23.630Z,5.75
2017-04-07T00:45:24.865Z,5.91
2017-04-07T00:46:26.103Z,5.81
2017-04-07T00:47:27.353Z,5.78
2017-04-07T00:48:28.585Z,5.81
2017-04-07T00:49:29.948Z,5.82
2017-04-07T00:50:31.156Z,5.77
2017-04-07T00:51:32.403Z,5.77
2017-04-07T00:52:33.644Z,5.77
2017-04-07T00:53:34.869Z,5.85
2017-04-07T00:54:36.107Z,5.83
2017-04-07T00:55:37.337Z,5.75
2017-04-07T00:56:38.700Z,5.75
2017-04-07T00:57:39.974Z,5.71
2017-04-07T00:58:41.232Z,5.66
2017-04-07T00:59:42.480Z,5.75
2017-04-07T01:00:43.710Z,5.66
2017-04-07T01:01:44.925Z,5.6
2017-04-07T01:02:46.159Z,5.66
2017-04-07T01:03:47.446Z,5.6
2017-04-07T01:04:48.671Z,5.59
2017-04-07T01:05:49.895Z,5.64
2017-04-07T01:06:51.129Z,5.59
2017-04-07T01:07:52.376Z,5.63
2017-04-07T01:08:53.605Z,5.55
2017-04-07T01:09:54.872Z,5.55
2017-04-07T01:10:56.105Z,5.59
2017-04-07T01:11:57.320Z,5.56
2017-04-07T01:12:58.564Z,5.55
2017-04-07T01:13:59.808Z,5.5
2017-04-07T01:15:01.089Z,5.5
2017-04-07T01:16:02.310Z,5.5
2017-04-07T01:17:03.725Z,5.5
2017-04-07T01:18:04.934Z,5.53
2017-04-07T01:19:06.163Z,5.5
2017-04-07T01:20:07.417Z,5.52
2017-04-07T01:21:08.667Z,5.49
2017-04-07T01:22:09.976Z,5.56
2017-04-07T01:23:11.189Z,5.5
2017-04-07T01:24:12.430Z,5.45
2017-04-07T01:25:13.665Z,5.49
2017-04-07T01:26:14.894Z,5.45
2017-04-07T01:27:16.150Z,5.5
2017-04-07T01:28:17.390Z,5.55
2017-04-07T01:29:18.640Z,5.53
2017-04-07T01:30:19.968Z,5.55
2017-04-07T01:31:21.259Z,5.57
2017-04-07T01:32:22.487Z,5.57
2017-04-07T01:33:23.767Z,5.6
2017-04-07T01:34:24.971Z,5.63
2017-04-07T01:35:26.245Z,5.71
2017-04-07T01:36:27.518Z,5.78
2017-04-07T01:37:28.753Z,5.89
2017-04-07T01:38:30.000Z,5.88
2017-04-07T01:39:31.244Z,6.06
2017-04-07T01:40:32.495Z,6.1
2017-04-07T01:41:33.726Z,6.14
2017-04-07T01:42:34.973Z,6.25
2017-04-07T01:43:36.259Z,6.25
2017-04-07T01:44:37.505Z,6.46
2017-04-07T01:45:38.767Z,6.43
2017-04-07T01:46:40.009Z,6.5
2017-04-07T01:47:41.241Z,6.53
2017-04-07T01:48:42.553Z,6.53
2017-04-07T01:49:43.807Z,6.53
2017-04-07T01:50:45.034Z,6.65
2017-04-07T01:51:46.269Z,6.76
2017-04-07T01:52:47.499Z,6.68
2017-04-07T01:53:48.738Z,6.69
2017-04-07T01:54:50.065Z,6.69
2017-04-07T01:55:51.323Z,6.8
2017-04-07T01:56:52.544Z,6.84
2017-04-07T01:57:53.803Z,6.8
2017-04-07T01:58:55.026Z,6.83
2017-04-07T01:59:56.264Z,6.87
2017-04-07T02:00:57.495Z,6.84
2017-04-07T02:01:58.778Z,6.91
2017-04-07T02:03:00.021Z,6.91
2017-04-07T02:04:01.266Z,6.95
2017-04-07T02:05:02.507Z,7.05
2017-04-07T02:06:03.777Z,7.08
2017-04-07T02:07:05.004Z,7.04
2017-04-07T02:08:06.235Z,7.02
2017-04-07T02:09:07.610Z,7.05
2017-04-07T02:10:08.860Z,6.99
2017-04-07T02:11:10.101Z,7.04
2017-04-07T02:12:11.347Z,7.07
2017-04-07T02:13:12.638Z,7.01
2017-04-07T02:14:13.917Z,7.05
2017-04-07T02:15:15.137Z,6.97
2017-04-07T02:16:16.375Z,7.01
2017-04-07T02:17:17.608Z,7.12
2017-04-07T02:18:18.843Z,6.99
2017-04-07T02:19:20.148Z,7.04
2017-04-07T02:20:21.392Z,7.02
2017-04-07T02:21:22.620Z,7.01
2017-04-07T02:22:23.906Z,7.07
2017-04-07T02:23:25.240Z,7.17
2017-04-07T02:24:26.482Z,7.08
2017-04-07T02:25:27.728Z,7.19
2017-04-07T02:26:28.968Z,7.12
2017-04-07T02:27:30.307Z,7.19
2017-04-07T02:28:31.584Z,7.16
2017-04-07T02:29:32.786Z,7.24
2017-04-07T02:30:34.023Z,7.19
2017-04-07T02:31:35.252Z,7.26
2017-04-07T02:32:36.495Z,7.2
2017-04-07T02:33:37.766Z,7.23
2017-04-07T02:34:38.997Z,7.19
2017-04-07T02:35:40.331Z,7.15
2017-04-07T02:36:41.586Z,7.22
2017-04-07T02:37:42.789Z,7.24
2017-04-07T02:38:44.029Z,7.2
2017-04-07T02:39:45.263Z,7.26
2017-04-07T02:40:46.522Z,7.32
2017-04-07T02:41:47.752Z,7.31
2017-04-07T02:42:49.027Z,7.37
2017-04-07T02:43:50.254Z,7.35
2017-04-07T02:44:51.501Z,7.35
2017-04-07T02:45:52.737Z,7.26
2017-04-07T02:46:53.992Z,7.42
2017-04-07T02:47:55.233Z,7.38
2017-04-07T02:48:56.497Z,7.42
2017-04-07T02:49:57.699Z,7.42
2017-04-07T02:50:58.944Z,7.38
2017-04-07T02:52:00.196Z,7.37
2017-04-07T02:53:01.444Z,7.53
2017-04-07T02:54:02.726Z,7.52
2017-04-07T02:55:04.013Z,7.5
2017-04-07T02:56:05.270Z,7.44
2017-04-07T02:57:06.495Z,7.55
2017-04-07T02:58:07.727Z,7.5
2017-04-07T02:59:08.966Z,7.55
2017-04-07T03:00:10.250Z,7.56
2017-04-07T03:01:11.491Z,7.58
2017-04-07T03:02:12.717Z,7.62
2017-04-07T03:03:13.946Z,7.71
2017-04-07T03:04:15.192Z,7.66
2017-04-07T03:05:16.453Z,7.6
2017-04-07T03:06:17.677Z,7.67
2017-04-07T03:07:18.966Z,7.74
2017-04-07T03:08:20.205Z,7.67
2017-04-07T03:09:21.426Z,7.72
2017-04-07T03:10:22.667Z,7.77
2017-04-07T03:11:23.909Z,7.81
2017-04-07T03:12:25.150Z,7.9
2017-04-07T03:13:26.413Z,7.81
2017-04-07T03:14:27.714Z,7.85
2017-04-07T03:15:28.948Z,7.92
2017-04-07T03:16:30.186Z,7.84
2017-04-07T03:17:31.461Z,7.85
2017-04-07T03:18:32.660Z,7.92
2017-04-07T03:19:33.903Z,7.87
2017-04-07T03:20:35.158Z,7.9
2017-04-07T03:21:36.537Z,7.87
2017-04-07T03:22:37.774Z,7.92
2017-04-07T03:23:39.037Z,7.82
2017-04-07T03:24:40.274Z,7.93
2017-04-07T03:25:41.516Z,7.99
2017-04-07T03:26:42.920Z,7.94
2017-04-07T03:27:44.153Z,7.93
2017-04-07T03:28:45.402Z,7.96
2017-04-07T03:29:46.658Z,7.97
2017-04-07T03:30:48.033Z,7.92
2017-04-07T03:31:49.253Z,7.99
2017-04-07T03:32:50.509Z,7.99
2017-04-07T03:33:51.747Z,7.97
2017-04-07T03:34:52.972Z,7.97
2017-04-07T03:35:54.265Z,7.99
2017-04-07T03:36:55.510Z,7.96
2017-04-07T03:37:56.747Z,7.99
2017-04-07T03:38:58.075Z,7.94
2017-04-07T03:39:59.478Z,7.96
2017-04-07T03:41:00.602Z,8.02
2017-04-07T03:42:01.858Z,7.99
2017-04-07T03:43:03.086Z,7.94
2017-04-07T03:44:04.393Z,7.99
2017-04-07T03:45:05.770Z,8.08
2017-04-07T03:46:07.001Z,8
2017-04-07T03:47:08.292Z,8.03
2017-04-07T03:48:09.515Z,8.03
2017-04-07T03:49:10.745Z,8.02
2017-04-07T03:50:12.035Z,7.99
2017-04-07T03:51:13.235Z,7.96
2017-04-07T03:52:14.470Z,7.99
2017-04-07T03:53:15.715Z,7.99
2017-04-07T03:54:16.944Z,8.02
2017-04-07T03:55:18.183Z,7.99
2017-04-07T03:56:19.422Z,7.97
2017-04-07T03:57:20.694Z,7.96
2017-04-07T03:58:21.963Z,8.03
2017-04-07T03:59:23.166Z,8.04
2017-04-07T04:00:24.399Z,8.02
2017-04-07T04:01:25.637Z,8.12
2017-04-07T04:02:26.892Z,8.03
2017-04-07T04:03:28.186Z,8.08
2017-04-07T04:04:29.476Z,8
2017-04-07T04:05:30.707Z,8.07
2017-04-07T04:06:31.956Z,8.04
2017-04-07T04:07:33.309Z,8.04
2017-04-07T04:08:34.726Z,8.11
2017-04-07T04:09:35.967Z,8.1
2017-04-07T04:10:37.198Z,8.07
2017-04-07T04:11:38.507Z,8.11
2017-04-07T04:12:39.778Z,8.12
2017-04-07T04:13:41.017Z,8.02
2017-04-07T04:14:42.255Z,8.04
2017-04-07T04:15:43.595Z,8.03
2017-04-07T04:16:44.830Z,8.1
2017-04-07T04:17:46.080Z,8.1
2017-04-07T04:18:47.363Z,8.1
2017-04-07T04:19:48.609Z,8.12
2017-04-07T04:20:49.902Z,8.07
2017-04-07T04:21:51.137Z,8.08
2017-04-07T04:22:52.401Z,8.11
2017-04-07T04:23:53.680Z,8.08
2017-04-07T04:24:54.897Z,8.07
2017-04-07T04:25:56.168Z,8.1
2017-04-07T04:26:57.403Z,8.07
2017-04-07T04:27:58.648Z,8.02
2017-04-07T04:29:00.001Z,8.11
2017-04-07T04:30:01.244Z,8.04
2017-04-07T04:31:02.529Z,8.04
2017-04-07T04:32:03.796Z,8.12
2017-04-07T04:33:05.019Z,8.07
2017-04-07T04:34:06.264Z,8.07
2017-04-07T04:35:07.602Z,8.11
2017-04-07T04:36:08.906Z,8.1
2017-04-07T04:37:10.271Z,8.02
2017-04-07T04:38:11.488Z,8.02
2017-04-07T04:39:12.721Z,8.08
2017-04-07T04:40:13.996Z,8.11
2017-04-07T04:41:15.262Z,7.96
2017-04-07T04:42:16.680Z,8.03
2017-04-07T04:43:17.912Z,8.03
2017-04-07T04:44:19.152Z,8.03
2017-04-07T04:45:20.397Z,7.97
2017-04-07T04:46:21.666Z,8.07
2017-04-07T04:47:23.003Z,8.03
2017-04-07T04:48:24.345Z,8.1
2017-04-07T04:49:25.561Z,8.04
2017-04-07T04:50:26.796Z,8.07
2017-04-07T04:51:28.031Z,8
2017-04-07T04:52:29.270Z,7.97
2017-04-07T04:53:30.503Z,8.07
2017-04-07T04:54:31.768Z,8.04
2017-04-07T04:55:33.046Z,8.07
2017-04-07T04:56:34.280Z,8.03
2017-04-07T04:57:35.515Z,8.1
2017-04-07T04:58:36.762Z,8.07
2017-04-07T04:59:38.017Z,8.1
2017-04-07T05:00:39.245Z,8.07
2017-04-07T05:01:40.492Z,8.1
2017-04-07T05:02:41.730Z,8.11
2017-04-07T05:03:42.970Z,8.07
2017-04-07T05:04:44.279Z,8.08
2017-04-07T05:05:45.603Z,8.04
2017-04-07T05:06:46.957Z,8.08
2017-04-07T05:07:48.188Z,8.15
2017-04-07T05:08:49.439Z,8.12
2017-04-07T05:09:50.672Z,8.08
2017-04-07T05:10:51.914Z,8.1
2017-04-07T05:11:53.153Z,8.12
2017-04-07T05:12:54.399Z,8.21
2017-04-07T05:13:55.633Z,8.14
2017-04-07T05:14:56.873Z,8.04
2017-04-07T05:15:58.108Z,8.2
2017-04-07T05:16:59.339Z,8.14
2017-04-07T05:18:00.592Z,8.17
2017-04-07T05:19:01.851Z,8.15
2017-04-07T05:20:03.091Z,8.11
2017-04-07T05:21:04.463Z,8.2
2017-04-07T05:22:05.703Z,8.17
2017-04-07T05:23:06.945Z,8.18
2017-04-07T05:24:08.218Z,8.14
2017-04-07T05:25:09.531Z,8.14
2017-04-07T05:26:10.757Z,8.21
2017-04-07T05:27:12.022Z,8.14
2017-04-07T05:28:13.232Z,8.14
2017-04-07T05:29:14.467Z,8.11
2017-04-07T05:30:15.741Z,8.15
2017-04-07T05:31:17.141Z,8.28
2017-04-07T05:32:18.370Z,8.26
2017-04-07T05:33:19.599Z,8.25
2017-04-07T05:34:20.942Z,8.26
2017-04-07T05:35:22.227Z,8.22
2017-04-07T05:36:23.466Z,8.21
2017-04-07T05:37:24.699Z,8.22
2017-04-07T05:38:25.952Z,8.3
2017-04-07T05:39:27.265Z,8.39
2017-04-07T05:40:28.504Z,8.42
2017-04-07T05:41:29.757Z,8.33
2017-04-07T05:42:30.994Z,8.35
2017-04-07T05:43:32.256Z,8.35
2017-04-07T05:44:33.504Z,8.37
2017-04-07T05:45:34.768Z,8.39
2017-04-07T05:46:35.984Z,8.39
2017-04-07T05:47:37.223Z,8.4
2017-04-07T05:48:38.471Z,8.42
2017-04-07T05:49:39.812Z,8.47
2017-04-07T05:50:41.131Z,8.5
2017-04-07T05:51:42.441Z,8.5
2017-04-07T05:52:43.731Z,8.48
2017-04-07T05:53:44.959Z,8.6
2017-04-07T05:54:46.239Z,8.58
2017-04-07T05:55:47.594Z,8.63
2017-04-07T05:56:48.832Z,8.69
2017-04-07T05:57:50.090Z,8.69
2017-04-07T05:58:51.305Z,8.71
2017-04-07T05:59:52.559Z,8.69
2017-04-07T06:00:53.786Z,8.69
2017-04-07T06:01:55.121Z,8.68
2017-04-07T06:02:56.432Z,8.75
2017-04-07T06:03:57.716Z,8.81
2017-04-07T06:04:58.937Z,8.76
2017-04-07T06:06:00.182Z,8.76
2017-04-07T06:07:01.447Z,8.87
2017-04-07T06:08:02.700Z,8.88
2017-04-07T06:09:04.135Z,8.91
2017-04-07T06:10:05.395Z,8.96
2017-04-07T06:11:06.621Z,9.05
2017-04-07T06:12:07.928Z,9.05
2017-04-07T06:13:09.177Z,9.1
2017-04-07T06:14:10.432Z,9.09
2017-04-07T06:15:11.677Z,9.02
2017-04-07T06:16:12.909Z,9.05
2017-04-07T06:17:14.160Z,9.1
2017-04-07T06:18:15.414Z,9.15
2017-04-07T06:19:16.703Z,9.23
2017-04-07T06:20:18.085Z,9.27
2017-04-07T06:21:19.209Z,9.25
2017-04-07T06:22:20.454Z,9.23
2017-04-07T06:23:21.712Z,9.27
2017-04-07T06:24:22.961Z,9.21
2017-04-07T06:25:24.189Z,9.28
2017-04-07T06:26:25.438Z,9.25
2017-04-07T06:27:26.691Z,9.38
2017-04-07T06:28:27.983Z,9.32
2017-04-07T06:29:29.199Z,9.43
2017-04-07T06:30:30.436Z,9.39
2017-04-07T06:31:31.705Z,9.49
2017-04-07T06:32:32.944Z,9.5
2017-04-07T06:33:34.234Z,9.66
2017-04-07T06:34:35.471Z,9.63
2017-04-07T06:35:36.709Z,9.73
2017-04-07T06:36:37.941Z,9.7
2017-04-07T06:37:39.179Z,9.76
2017-04-07T06:38:40.517Z,9.78
2017-04-07T06:39:41.721Z,9.68
2017-04-07T06:40:42.962Z,9.86
2017-04-07T06:41:44.206Z,9.88
2017-04-07T06:42:45.448Z,9.97
2017-04-07T06:43:46.687Z,10.03
2017-04-07T06:44:47.926Z,10.07
2017-04-07T06:45:49.158Z,10.01
2017-04-07T06:46:50.395Z,10.04
2017-04-07T06:47:51.749Z,10.17
2017-04-07T06:48:52.869Z,10.22
2017-04-07T06:49:54.108Z,10.3
2017-04-07T06:50:55.364Z,10.37
2017-04-07T06:51:56.612Z,10.39
2017-04-07T06:52:57.898Z,10.39
2017-04-07T06:53:59.152Z,10.33
2017-04-07T06:55:00.492Z,10.26
2017-04-07T06:56:01.724Z,10.3
2017-04-07T06:57:02.975Z,10.36
2017-04-07T06:58:04.238Z,10.33
2017-04-07T06:59:05.464Z,10.4
2017-04-07T07:00:06.714Z,10.4
2017-04-07T07:01:08.115Z,10.53
2017-04-07T07:02:09.343Z,10.55
2017-04-07T07:03:10.579Z,10.43
2017-04-07T07:04:11.835Z,10.42
2017-04-07T07:05:13.060Z,10.43
2017-04-07T07:06:14.357Z,10.46
2017-04-07T07:07:15.646Z,10.43
2017-04-07T07:08:16.856Z,10.37
2017-04-07T07:09:18.093Z,10.36
2017-04-07T07:10:19.328Z,10.39
2017-04-07T07:11:20.619Z,10.42
2017-04-07T07:12:21.864Z,10.43
2017-04-07T07:13:23.093Z,10.4
2017-04-07T07:14:24.339Z,10.4
2017-04-07T07:15:25.605Z,10.46
2017-04-07T07:16:26.838Z,10.62
2017-04-07T07:17:28.196Z,10.47
2017-04-07T07:18:29.538Z,10.52
2017-04-07T07:19:30.806Z,10.59
2017-04-07T07:20:32.043Z,10.52
2017-04-07T07:21:33.293Z,10.59
2017-04-07T07:22:34.533Z,10.56
2017-04-07T07:23:35.797Z,10.65
2017-04-07T07:24:37.061Z,10.66
2017-04-07T07:25:38.313Z,10.73
2017-04-07T07:26:39.560Z,10.58
2017-04-07T07:27:40.794Z,10.62
2017-04-07T07:28:42.027Z,10.6
2017-04-07T07:29:43.281Z,10.7
2017-04-07T07:30:44.525Z,10.6
2017-04-07T07:31:45.787Z,10.7
2017-04-07T07:32:47.017Z,10.74
2017-04-07T07:33:48.254Z,10.81
2017-04-07T07:34:49.516Z,10.76
2017-04-07T07:35:50.750Z,10.74
2017-04-07T07:36:52.036Z,10.7
2017-04-07T07:37:53.320Z,10.73
2017-04-07T07:38:54.591Z,10.65
2017-04-07T07:39:55.831Z,10.62
2017-04-07T07:40:57.075Z,10.71
2017-04-07T07:41:58.389Z,10.68
2017-04-07T07:42:59.625Z,10.71
2017-04-07T07:44:00.866Z,10.6
2017-04-07T07:45:02.121Z,10.66
2017-04-07T07:46:03.379Z,10.71
2017-04-07T07:47:04.631Z,10.74
2017-04-07T07:48:05.856Z,10.77
2017-04-07T07:49:07.086Z,10.88
2017-04-07T07:50:08.361Z,10.91
2017-04-07T07:51:09.742Z,11.14
2017-04-07T07:52:10.968Z,11.34
2017-04-07T07:53:12.227Z,11.53
2017-04-07T07:54:13.468Z,11.57
2017-04-07T07:55:14.724Z,11.67
2017-04-07T07:56:15.951Z,11.9
2017-04-07T07:57:17.216Z,11.9
2017-04-07T07:58:18.471Z,11.97
2017-04-07T07:59:19.710Z,12.11
2017-04-07T08:00:20.933Z,12.3
2017-04-07T08:01:22.243Z,12.26
2017-04-07T08:02:23.482Z,12.24
2017-04-07T08:03:24.734Z,12.31
2017-04-07T08:04:25.980Z,12.41
2017-04-07T08:05:27.228Z,12.42
2017-04-07T08:06:28.475Z,12.48
2017-04-07T08:07:29.714Z,12.51
2017-04-07T08:08:30.957Z,12.59
2017-04-07T08:09:32.218Z,12.59
2017-04-07T08:10:33.467Z,12.6
2017-04-07T08:11:34.765Z,12.59
2017-04-07T08:12:36.214Z,12.67
2017-04-07T08:13:37.437Z,12.67
2017-04-07T08:14:38.704Z,12.69
2017-04-07T08:15:39.959Z,12.69
2017-04-07T08:16:41.225Z,12.69
2017-04-07T08:17:42.468Z,12.69
2017-04-07T08:18:43.705Z,12.57
2017-04-07T08:19:44.946Z,12.67
2017-04-07T08:20:46.195Z,12.64
2017-04-07T08:21:47.443Z,12.67
2017-04-07T08:22:48.720Z,12.66
2017-04-07T08:23:49.957Z,12.7
2017-04-07T08:24:51.238Z,12.81
2017-04-07T08:25:52.460Z,12.74
2017-04-07T08:26:53.722Z,12.84
2017-04-07T08:27:54.970Z,12.75
2017-04-07T08:28:56.252Z,12.74
2017-04-07T08:29:57.499Z,12.82
2017-04-07T08:30:58.735Z,12.87
2017-04-07T08:31:59.976Z,12.78
2017-04-07T08:33:01.212Z,12.78
2017-04-07T08:34:02.475Z,12.88
2017-04-07T08:35:03.740Z,12.89
2017-04-07T08:36:05.121Z,12.82
2017-04-07T08:37:06.378Z,13
2017-04-07T08:38:07.611Z,12.96
2017-04-07T08:39:08.850Z,12.93
2017-04-07T08:40:10.109Z,13.07
2017-04-07T08:41:11.350Z,13.2
2017-04-07T08:42:12.598Z,13.29
2017-04-07T08:43:13.851Z,13.38
2017-04-07T08:44:15.075Z,13.29
2017-04-07T08:45:16.448Z,13.41
2017-04-07T08:46:17.684Z,13.49
2017-04-07T08:47:19.016Z,13.52
2017-04-07T08:48:20.383Z,13.62
2017-04-07T08:49:21.683Z,13.69
2017-04-07T08:50:22.929Z,13.7
2017-04-07T08:51:24.255Z,13.77
2017-04-07T08:52:25.498Z,13.69
2017-04-07T08:53:26.749Z,13.69
2017-04-07T08:54:28.018Z,13.7
2017-04-07T08:55:29.400Z,13.69
2017-04-07T08:56:30.556Z,13.81
2017-04-07T08:57:31.795Z,13.84
2017-04-07T08:58:33.064Z,13.91
2017-04-07T08:59:34.362Z,13.88
2017-04-07T09:00:35.734Z,13.92
2017-04-07T09:01:36.995Z,14.1
2017-04-07T09:02:38.248Z,14.13
2017-04-07T09:03:39.485Z,14.12
2017-04-07T09:04:40.916Z,14.12
2017-04-07T09:05:42.171Z,14.06
2017-04-07T09:06:43.406Z,14.06
2017-04-07T09:07:44.771Z,14.01
2017-04-07T09:08:46.018Z,13.89
2017-04-07T09:09:47.268Z,13.88
2017-04-07T09:10:48.495Z,13.88
2017-04-07T09:11:49.909Z,13.92
2017-04-07T09:12:51.130Z,14.1
2017-04-07T09:13:52.375Z,14.06
2017-04-07T09:14:53.616Z,14.12
2017-04-07T09:15:54.939Z,14.1
2017-04-07T09:16:56.175Z,14.16
2017-04-07T09:17:57.400Z,14.1
2017-04-07T09:18:58.655Z,14.01
2017-04-07T09:20:00.127Z,14.1
2017-04-07T09:21:01.372Z,14.19
2017-04-07T09:22:02.613Z,14.13
2017-04-07T09:23:03.861Z,14.04
2017-04-07T09:24:05.127Z,14.01
2017-04-07T09:25:06.370Z,14.17
2017-04-07T09:26:07.618Z,14.17
2017-04-07T09:27:08.879Z,14.14
2017-04-07T09:28:10.155Z,14.14
2017-04-07T09:29:11.397Z,14.2
2017-04-07T09:30:12.706Z,14.25
2017-04-07T09:31:13.963Z,14.19
2017-04-07T09:32:15.194Z,14.21
2017-04-07T09:33:16.481Z,14.2
2017-04-07T09:34:17.710Z,14.32
2017-04-07T09:35:19.012Z,14.34
2017-04-07T09:36:20.299Z,14.46
2017-04-07T09:37:21.519Z,14.46
2017-04-07T09:38:22.780Z,14.57
2017-04-07T09:39:24.019Z,14.75
2017-04-07T09:40:25.256Z,14.8
2017-04-07T09:41:26.508Z,14.94
2017-04-07T09:42:27.844Z,14.88
2017-04-07T09:43:29.082Z,14.88
2017-04-07T09:44:30.326Z,14.88
2017-04-07T09:45:31.566Z,14.84
2017-04-07T09:46:32.879Z,14.74
2017-04-07T09:47:34.110Z,14.86
2017-04-07T09:48:35.395Z,14.81
2017-04-07T09:49:36.649Z,14.87
2017-04-07T09:50:37.867Z,14.91
2017-04-07T09:51:39.120Z,15.08
2017-04-07T09:52:40.478Z,15.26
2017-04-07T09:53:41.716Z,15.33
2017-04-07T09:54:42.965Z,15.7
2017-04-07T09:55:44.241Z,16.44
2017-04-07T09:56:45.473Z,17.26
2017-04-07T09:57:46.704Z,18.17
2017-04-07T09:58:47.942Z,19.14
2017-04-07T09:59:49.200Z,19.86
2017-04-07T10:00:50.570Z,20.47
2017-04-07T10:01:51.986Z,20.74
2017-04-07T10:02:53.322Z,21.48
2017-04-07T10:03:54.635Z,22.32
2017-04-07T10:04:55.899Z,23.29
2017-04-07T10:05:57.148Z,24.23
2017-04-07T10:06:58.422Z,25.31
2017-04-07T10:07:59.744Z,25.61
2017-04-07T10:09:00.993Z,25.97
2017-04-07T10:10:02.263Z,26.31
2017-04-07T10:11:03.523Z,26.73
2017-04-07T10:12:04.779Z,26.81
2017-04-07T10:13:06.057Z,27.33
2017-04-07T10:14:07.326Z,27.32
2017-04-07T10:15:08.645Z,27.04
2017-04-07T10:16:09.894Z,27.14
2017-04-07T10:17:11.143Z,27.23
2017-04-07T10:18:12.452Z,27.57
2017-04-07T10:19:13.723Z,27.28
2017-04-07T10:20:14.951Z,27.02
2017-04-07T10:21:16.215Z,26.74
2017-04-07T10:22:17.475Z,26.47
2017-04-07T10:23:18.709Z,26.28
2017-04-07T10:24:19.964Z,25.75
2017-04-07T10:25:21.227Z,25.49
2017-04-07T10:26:22.473Z,25.27
2017-04-07T10:27:23.804Z,25
2017-04-07T10:28:25.053Z,24.63
2017-04-07T10:29:26.295Z,24.45
2017-04-07T10:30:27.557Z,24.45
2017-04-07T10:31:28.815Z,24.68
2017-04-07T10:32:30.154Z,24.92
2017-04-07T10:33:31.395Z,24.79
2017-04-07T10:34:32.639Z,24.47
2017-04-07T10:35:33.890Z,24.19
2017-04-07T10:36:35.173Z,23.95
2017-04-07T10:37:36.497Z,24.07
2017-04-07T10:38:37.895Z,24.04
2017-04-07T10:39:39.117Z,23.64
2017-04-07T10:40:40.414Z,22.69
2017-04-07T10:41:41.666Z,21.99
2017-04-07T10:42:42.933Z,21.21
2017-04-07T10:43:44.215Z,20.91
2017-04-07T10:44:45.463Z,20.51
2017-04-07T10:45:46.720Z,20.39
2017-04-07T10:46:47.973Z,20.24
2017-04-07T10:47:49.224Z,20.33
2017-04-07T10:48:50.554Z,20.42
2017-04-07T10:49:51.788Z,20.59
2017-04-07T10:50:53.075Z,20.28
2017-04-07T10:51:54.326Z,20.18
2017-04-07T10:52:55.565Z,20
2017-04-07T10:53:56.934Z,19.79
2017-04-07T10:54:58.210Z,19.7
2017-04-07T10:55:59.447Z,19.35
2017-04-07T10:57:00.712Z,19.28
2017-04-07T10:58:01.952Z,19.23
2017-04-07T10:59:03.191Z,19.06
2017-04-07T11:00:04.446Z,19.17
2017-04-07T11:01:05.709Z,19.08
2017-04-07T11:02:06.998Z,19.15
2017-04-07T11:03:08.258Z,19.08
2017-04-07T11:04:09.616Z,19.02
2017-04-07T11:05:10.859Z,19.01
2017-04-07T11:06:12.105Z,18.62
2017-04-07T11:07:13.382Z,18.65
2017-04-07T11:08:14.680Z,18.67
2017-04-07T11:09:15.940Z,18.61
2017-04-07T11:10:17.260Z,18.59
2017-04-07T11:11:18.570Z,18.61
2017-04-07T11:12:19.811Z,18.68
2017-04-07T11:13:21.106Z,18.77
2017-04-07T11:14:22.345Z,18.67
2017-04-07T11:15:23.612Z,18.68
2017-04-07T11:16:24.873Z,18.62
2017-04-07T11:17:26.146Z,18.43
2017-04-07T11:18:27.387Z,18.22
2017-04-07T11:19:28.638Z,18.18
2017-04-07T11:20:29.894Z,18.06
2017-04-07T11:21:31.122Z,18.1
2017-04-07T11:22:32.474Z,18.33
2017-04-07T11:23:33.711Z,18.5
2017-04-07T11:24:34.960Z,18.65
2017-04-07T11:25:36.188Z,18.65
2017-04-07T11:26:37.431Z,18.64
2017-04-07T11:27:38.710Z,18.7
2017-04-07T11:28:39.943Z,18.61
2017-04-07T11:29:41.182Z,18.58
2017-04-07T11:30:42.433Z,18.62
2017-04-07T11:31:43.683Z,18.61
2017-04-07T11:32:44.976Z,18.49
2017-04-07T11:33:46.200Z,18.29
2017-04-07T11:34:47.440Z,17.89
2017-04-07T11:35:48.682Z,17.7
2017-04-07T11:36:49.939Z,17.54
2017-04-07T11:37:51.188Z,17.44
2017-04-07T11:38:52.590Z,17.41
2017-04-07T11:39:53.860Z,17.55
2017-04-07T11:40:55.099Z,17.76
2017-04-07T11:41:56.354Z,17.94
2017-04-07T11:42:57.593Z,18.13
2017-04-07T11:43:58.903Z,17.89
2017-04-07T11:45:00.143Z,17.92
2017-04-07T11:46:01.392Z,18.1
2017-04-07T11:47:02.690Z,18.19
2017-04-07T11:48:03.949Z,18.46
2017-04-07T11:49:05.169Z,18.58
2017-04-07T11:50:06.418Z,18.72
2017-04-07T11:51:07.678Z,18.65
2017-04-07T11:52:08.934Z,18.57
2017-04-07T11:53:10.174Z,18.42
2017-04-07T11:54:11.432Z,18.27
2017-04-07T11:55:12.672Z,17.97
2017-04-07T11:56:13.920Z,17.85
2017-04-07T11:57:15.202Z,17.79
2017-04-07T11:58:16.448Z,17.73
2017-04-07T11:59:17.720Z,17.73
2017-04-07T12:00:18.957Z,17.71
2017-04-07T12:01:20.191Z,17.62
2017-04-07T12:02:21.439Z,17.55
2017-04-07T12:03:22.716Z,17.48
2017-04-07T12:04:23.965Z,17.35
2017-04-07T12:05:25.302Z,17.17
2017-04-07T12:06:26.595Z,17.14
2017-04-07T12:07:27.812Z,17.18
2017-04-07T12:08:29.059Z,17.17
2017-04-07T12:09:30.422Z,17.25
2017-04-07T12:10:31.671Z,17.28
2017-04-07T12:11:32.968Z,17.2
2017-04-07T12:12:34.209Z,17.26
2017-04-07T12:13:35.456Z,17.26
2017-04-07T12:14:36.705Z,17.43
2017-04-07T12:15:37.968Z,17.51
2017-04-07T12:16:39.321Z,17.62
2017-04-07T12:17:40.652Z,17.55
2017-04-07T12:18:41.903Z,17.62
2017-04-07T12:19:43.154Z,17.55
2017-04-07T12:20:44.491Z,17.53
2017-04-07T12:21:45.734Z,17.66
2017-04-07T12:22:46.992Z,17.78
2017-04-07T12:23:48.467Z,17.87
2017-04-07T12:24:49.688Z,18.09
2017-04-07T12:25:50.937Z,18.42
2017-04-07T12:26:52.244Z,18.67
2017-04-07T12:27:53.508Z,18.62
2017-04-07T12:28:54.784Z,18.65
2017-04-07T12:29:56.023Z,18.68
2017-04-07T12:30:57.263Z,18.79
2017-04-07T12:31:58.566Z,18.62
2017-04-07T12:32:59.811Z,18.65
2017-04-07T12:34:01.296Z,18.68
2017-04-07T12:35:02.537Z,18.4
2017-04-07T12:36:03.806Z,18.58
2017-04-07T12:37:05.038Z,18.54
2017-04-07T12:38:06.421Z,18.79
2017-04-07T12:39:07.650Z,18.91
2017-04-07T12:40:08.911Z,19.02
2017-04-07T12:41:10.216Z,18.79
2017-04-07T12:42:11.479Z,18.82
2017-04-07T12:43:12.723Z,18.68
2017-04-07T12:44:13.986Z,18.77
2017-04-07T12:45:15.214Z,18.74
2017-04-07T12:46:16.511Z,18.72
2017-04-07T12:47:17.756Z,18.76
2017-04-07T12:48:19.079Z,18.82
2017-04-07T12:49:20.320Z,18.84
2017-04-07T12:50:21.769Z,18.83
2017-04-07T12:51:23.018Z,18.87
2017-04-07T12:52:24.313Z,18.9
2017-04-07T12:53:25.577Z,18.73
2017-04-07T12:54:26.813Z,18.44
2017-04-07T12:55:28.070Z,18.29
2017-04-07T12:56:29.309Z,18.02
2017-04-07T12:57:30.578Z,17.81
2017-04-07T12:58:31.841Z,17.66
2017-04-07T12:59:33.089Z,17.55
2017-04-07T13:00:34.356Z,17.55
2017-04-07T13:01:35.580Z,17.55
2017-04-07T13:02:36.862Z,17.57
2017-04-07T13:03:38.088Z,17.54
2017-04-07T13:04:39.341Z,17.55
2017-04-07T13:05:40.613Z,17.38
2017-04-07T13:06:41.878Z,17.33
2017-04-07T13:07:43.100Z,17.4
2017-04-07T13:08:44.391Z,17.22
2017-04-07T13:09:45.632Z,17.2
2017-04-07T13:10:46.886Z,16.99
2017-04-07T13:11:48.327Z,17.06
2017-04-07T13:12:49.626Z,17.03
2017-04-07T13:13:50.806Z,17.13
2017-04-07T13:14:52.048Z,17.06
2017-04-07T13:15:53.303Z,17.08
2017-04-07T13:16:54.594Z,17.06
2017-04-07T13:17:55.831Z,17
2017-04-07T13:18:57.075Z,17.17
2017-04-07T13:19:58.338Z,17.2
2017-04-07T13:20:59.586Z,17.22
2017-04-07T13:22:00.858Z,17.25
2017-04-07T13:23:02.138Z,17.22
2017-04-07T13:24:03.373Z,17.26
2017-04-07T13:25:04.620Z,17.32